• Join FlightAware (Why Join?)
  • Login
  • US Flag 
07:01AM EDT


 

Airport Tracker/Info


-or-


 

Live Flight TrackerFlight Track Log ✈ RPA3436 ✈ 18-Feb-2014 ✈ KCHS - KDCA

Flight Track Log - Related Links

Times and Time Zones

All times are in EST time to prevent confusion due to time zone crossing. See the RPA3436 flight status page for this flight to view local times or setup timezone preferences in your user account.

Time Position Orientation Groundspeed Altitude Reporting Facility
EST Latitude Longitude Course Direction KTS MPH feet Rate Location/Type
07:59AM 33.1501 -79.9500 North  Level FlightAware Approximate
07:59AM 33.0500 -80.0078 13° North 287 330 5,300  Level Jacksonville Center
08:00AM 33.2403 -79.9286 North  Level FlightAware Approximate
08:00AM 33.1183 -79.9808 18° North 287 330 8,900  Level Jacksonville Center
08:01AM 33.3294 -79.9020 23° Northeast  Level FlightAware Approximate
08:01AM 33.1969 -79.9536 16° North 282 325 10,800  Level Jacksonville Center
08:02AM 33.4180 -79.8731 North  Level FlightAware Approximate
08:02AM 33.2772 -79.9061 26° Northeast 301 346 13,000  Level Jacksonville Center
08:03AM 33.5084 -79.8500 13° North  Level FlightAware Approximate
08:03AM 33.3636 -79.8561 26° Northeast 321 369 15,400  Level Jacksonville Center
08:04AM 33.4542 -79.8031 26° Northeast 340 391 17,600 1,800 Climbing Jacksonville Center
08:05AM 33.5469 -79.7500 25° Northeast 350 403 19,100 1,800 Climbing Jacksonville Center
08:06AM 33.6436 -79.6942 26° Northeast 362 417 21,200 1,860 Climbing Jacksonville Center
08:07AM 33.7400 -79.6358 27° Northeast 373 429 22,900 1,560 Climbing Jacksonville Center
08:08AM 33.8408 -79.5769 26° Northeast 386 444 24,400 1,620 Climbing Jacksonville Center
08:09AM 33.9517 -79.5128 26° Northeast 386 444 26,200 1,380 Climbing Jacksonville Center
08:10AM 34.1042 -79.4264 25° Northeast 407 468 28,100 1,380 Climbing Washington Center
08:11AM 34.2083 -79.3636 26° Northeast 412 474 29,900 1,800 Climbing Washington Center
08:12AM 34.3253 -79.2911 27° Northeast 412 474 31,700 1,560 Climbing Washington Center
08:13AM 34.4272 -79.2328 25° Northeast 412 474 33,000 600 Climbing Washington Center
08:14AM 34.5336 -79.1694 26° Northeast 412 474 33,000  Level Washington Center
08:15AM 34.6356 -79.1081 26° Northeast 412 474 33,000  Level Washington Center
08:16AM 34.7397 -79.0444 27° Northeast 412 474 33,000  Level Washington Center
08:17AM 34.8414 -78.9831 26° Northeast 412 474 33,000  Level Washington Center
08:18AM 34.9456 -78.9214 26° Northeast 412 474 33,000  Level Washington Center
08:19AM 35.0472 -78.8597 26° Northeast 412 474 33,000  Level Washington Center
08:20AM 35.1533 -78.7953 26° Northeast 412 474 33,000  Level Washington Center
08:21AM 35.2594 -78.7308 26° Northeast 412 474 33,000 -240 Level Washington Center
08:22AM 35.3653 -78.6689 26° Northeast 412 474 32,600 -840 Descending Washington Center
08:23AM 35.4608 -78.6089 27° Northeast 412 474 31,400 -1,320 Descending Washington Center
08:24AM 35.5775 -78.5364 27° Northeast 417 480 30,000 -1,320 Descending Washington Center
08:25AM 35.6769 -78.4764 26° Northeast 417 480 28,900 -1,200 Descending Washington Center
08:26AM 35.7806 -78.4133 26° Northeast 417 480 27,700 -960 Descending Washington Center
08:27AM 35.8822 -78.3506 27° Northeast 411 473 27,000 -360 Descending Washington Center
08:28AM 35.9903 -78.2850 26° Northeast 411 473 27,000  Level Washington Center
08:29AM 36.0917 -78.2217 27° Northeast 411 473 27,000  Level Washington Center
08:30AM 36.1953 -78.1556 27° Northeast 411 473 27,000  Level Washington Center
08:31AM 36.3011 -78.0869 28° Northeast 416 479 27,000  Level Washington Center
08:32AM 36.4069 -78.0231 26° Northeast 416 479 27,000  Level Washington Center
08:33AM 36.5125 -77.9539 28° Northeast 416 479 27,000 -480 Level Washington Center
08:34AM 36.6203 -77.8875 26° Northeast 416 479 26,100 -1,200 Descending Washington Center
08:35AM 36.7236 -77.8206 27° Northeast 416 479 24,600 -1,500 Descending Washington Center
08:36AM 36.8250 -77.7558 27° Northeast 411 473 23,200 -1,320 Descending Washington Center
08:37AM 36.9264 -77.6911 27° Northeast 411 473 22,000 -600 Descending Washington Center
08:38AM 37.0253 -77.6342 25° Northeast 405 466 22,000  Level Washington Center
08:39AM 37.1283 -77.5950 17° North 394 453 22,000  Level Washington Center
08:40AM 37.2289 -77.5586 16° North 389 448 22,000  Level Washington Center
08:41AM 37.3319 -77.5169 18° North 384 442 22,000  Level Washington Center
08:42AM 37.4325 -77.4828 15° North 379 436 22,000  Level Washington Center
08:43AM 37.5311 -77.4458 17° North 374 430 22,000 -180 Level Washington Center
08:44AM 37.6297 -77.4089 17° North 369 425 21,700 -1,200 Descending Washington Center
08:45AM 37.7261 -77.3719 17° North 363 418 19,700 -1,860 Descending Washington Center
08:46AM 37.8206 -77.3347 17° North 358 412 18,000 -1,560 Descending Washington Center
08:47AM 37.9086 -77.3025 16° North 342 394 16,600 -1,560 Descending Washington Center
08:48AM 37.9967 -77.2675 17° North 336 387 15,000 -1,620 Descending Washington Center
08:49AM 38.0828 -77.2378 15° North 325 374 13,500 -1,500 Descending Washington Center
08:50AM 38.1644 -77.2081 16° North 315 362 12,000 -1,500 Descending Washington Center
08:51AM 38.2442 -77.1753 18° North 309 356 10,500 -1,020 Descending Washington Center
08:52AM 38.3300 -77.1506 13° North 303 349 10,000 -300 Descending Washington Center
08:53AM 38.4114 -77.1339 North 303 349 10,000  Level Washington Center
08:54AM 38.4889 -77.1169 10° North 292 336 10,000 -300 Level Washington Center
08:55AM 38.5661 -77.1000 10° North 287 330 9,400 -540 Descending Washington Center
08:56AM 38.6394 -77.0828 10° North 276 318 9,000 -180 Descending Washington Center
08:57AM 38.7167 -77.0603 13° North 276 318 9,100 -60 Climbing Washington Center
08:58AM 38.7833 -76.9833 42° Northeast 312 359 8,900 -120 Descending Potomac TRACON
08:59AM 38.8667 -76.9500 17° North 268 308 8,900  Level Potomac TRACON
09:00AM 38.9167 -76.9500 360° North 206 237 8,900 -420 Level Potomac TRACON
09:01AM 38.9667 -76.9833 333° Northwest 173 199 8,100 -1,200 Descending Potomac TRACON
09:02AM 39.0000 -77.0167 322° Northwest 164 189 6,700 -1,560 Descending Potomac TRACON
09:03AM 39.0333 -77.0500 322° Northwest 158 182 5,200 -1,740 Descending Potomac TRACON
09:04AM 39.0667 -77.1000 311° West 171 197 3,300 -1,200 Descending Potomac TRACON
09:05AM 39.0667 -77.1333 270° West 154 177 2,900 -240 Descending Potomac TRACON
09:06AM 39.0500 -77.1667 237° Southwest 149 171 2,900  Level Potomac TRACON
09:07AM 39.0000 -77.1667 180° South 169 194 2,900 -240 Level Potomac TRACON
09:08AM 38.9500 -77.1333 153° Southeast 174 200 2,500 -660 Descending Potomac TRACON
09:09AM 38.9167 -77.1000 142° Southeast 154 177 1,600 -900 Descending Potomac TRACON
09:10AM 38.9000 -77.0667 123° Southeast 138 159 800 -840 Descending Potomac TRACON